Time;durP1;ratioP1;P1;durP2;ratioP2;P2;SDS_P1;SDS_P2;PMS_P1;PMS_P2;Temp;Humidity;BMP_temperature;BMP_pressure;BME280_temperature;BME280_humidity;BME280_pressure;Samples;Min_cycle;Max_cycle;Signal;HPM_P1;HPM_P2
2023/11/03 00:01:30;;;;;;;7.60;4.40;;;;;;;7.77;81.57;98088.34;108710;1265;72880;-28
2023/11/03 00:03:58;;;;;;;5.90;4.50;;;;;;;7.52;82.48;98084.08;108673;1265;60135;-28
2023/11/03 00:06:25;;;;;;;5.10;3.30;;;;;;;7.31;83.61;98083.34;108703;1265;60201;-28
2023/11/03 00:08:53;;;;;;;8.80;4.90;;;;;;;7.45;84.24;98075.61;108701;1265;73085;-28
2023/11/03 00:11:20;;;;;;;5.10;3.20;;;;;;;7.86;82.30;98068.93;108747;1265;74331;-28
2023/11/03 00:13:48;;;;;;;8.10;4.30;;;;;;;7.90;81.60;98065.61;108665;1266;71420;-28
2023/11/03 00:16:15;;;;;;;7.50;3.90;;;;;;;7.75;82.02;98061.37;108563;1267;60080;-28
2023/11/03 00:18:43;;;;;;;8.60;4.90;;;;;;;7.55;83.07;98062.34;108629;1265;60016;-28
2023/11/03 00:21:10;;;;;;;7.60;4.30;;;;;;;7.36;84.12;98062.43;108605;1265;71761;-28
2023/11/03 00:23:38;;;;;;;8.80;4.60;;;;;;;7.57;83.90;98054.40;108691;1265;74156;-28
2023/11/03 00:26:09;;;;;;;7.70;4.30;;;;;;;7.92;82.08;98050.12;108749;1266;72633;-28
2023/11/03 00:28:38;;;;;;;6.80;4.80;;;;;;;7.86;81.84;98048.64;108572;1267;58777;-28
2023/11/03 00:31:06;;;;;;;12.10;5.50;;;;;;;7.69;82.46;98051.19;108606;1265;60008;-28
2023/11/03 00:33:34;;;;;;;5.80;3.90;;;;;;;7.48;83.36;98047.95;108700;1265;73131;-28
2023/11/03 00:36:03;;;;;;;4.90;4.00;;;;;;;7.26;84.78;98037.00;108589;1266;74344;-28
2023/11/03 00:38:32;;;;;;;6.60;4.60;;;;;;;7.51;84.65;98036.09;109006;1257;71873;-28
2023/11/03 00:40:59;;;;;;;5.90;4.30;;;;;;;7.82;83.00;98037.13;109187;1256;60054;-28
2023/11/03 00:43:26;;;;;;;7.00;4.60;;;;;;;7.80;82.46;98040.02;109016;1256;60094;-28
2023/11/03 00:45:54;;;;;;;7.20;5.20;;;;;;;7.61;83.03;98037.85;109040;1257;73019;-28
2023/11/03 00:48:22;;;;;;;8.40;5.80;;;;;;;7.41;83.89;98037.80;109081;1257;74322;-28
2023/11/03 00:50:50;;;;;;;6.40;4.30;;;;;;;7.28;84.88;98043.71;109108;1257;71552;-28
2023/11/03 00:53:18;;;;;;;5.50;4.10;;;;;;;7.72;83.63;98043.80;109078;1257;58769;-28
2023/11/03 00:55:46;;;;;;;5.80;3.60;;;;;;;7.96;82.06;98041.83;109214;1256;58757;-28
2023/11/03 00:58:14;;;;;;;7.50;4.60;;;;;;;7.79;82.04;98043.02;109124;1257;72734;-28
2023/11/03 01:00:41;;;;;;;8.70;4.70;;;;;;;7.61;82.71;98046.66;109044;1259;73169;-28
2023/11/03 01:03:09;;;;;;;7.30;5.10;;;;;;;7.41;83.33;98046.75;108959;1259;72612;-28
2023/11/03 01:05:36;;;;;;;7.20;3.80;;;;;;;7.20;84.36;98042.80;108954;1261;59152;-28
2023/11/03 01:08:04;;;;;;;5.40;3.80;;;;;;;7.45;84.31;98045.02;109003;1259;60015;-28
2023/11/03 01:10:32;;;;;;;7.50;4.10;;;;;;;7.81;82.56;98042.66;108968;1259;71771;-28
2023/11/03 01:13:01;;;;;;;5.80;4.60;;;;;;;7.79;81.92;98043.05;109076;1259;73060;-28
2023/11/03 01:15:29;;;;;;;7.50;4.20;;;;;;;7.61;82.53;98042.00;108935;1259;72683;-28
2023/11/03 01:17:57;;;;;;;10.00;4.70;;;;;;;7.33;83.80;98044.96;108993;1259;59325;-28
2023/11/03 01:20:27;;;;;;;5.10;4.00;;;;;;;7.12;84.70;98045.89;108969;1260;58783;-28
2023/11/03 01:22:56;;;;;;;5.80;3.70;;;;;;;7.07;85.68;98046.48;109021;1259;73026;-28
2023/11/03 01:25:24;;;;;;;5.80;4.10;;;;;;;7.54;83.91;98043.10;108935;1259;73317;-28
2023/11/03 01:27:51;;;;;;;7.40;4.80;;;;;;;7.71;82.48;98035.44;108901;1258;73092;-28
2023/11/03 01:30:20;;;;;;;6.10;4.40;;;;;;;7.58;82.52;98032.25;109050;1259;60060;-28
2023/11/03 01:32:52;;;;;;;7.20;5.20;;;;;;;7.34;83.32;98030.98;108862;1259;58962;-28
2023/11/03 01:35:21;;;;;;;6.80;4.70;;;;;;;7.10;84.34;98027.11;109000;1260;71419;-28
2023/11/03 01:37:48;;;;;;;6.40;4.10;;;;;;;6.95;85.54;98021.73;108933;1259;74314;-28
2023/11/03 01:40:16;;;;;;;5.90;3.20;;;;;;;7.34;84.63;98011.79;108960;1259;72720;-28
2023/11/03 01:42:43;;;;;;;6.20;4.50;;;;;;;7.59;83.12;98007.65;108962;1262;58833;-28
2023/11/03 01:45:11;;;;;;;5.70;3.90;;;;;;;7.53;82.77;98005.83;109115;1259;60014;-28
2023/11/03 01:47:39;;;;;;;8.50;4.70;;;;;;;7.36;83.11;98001.28;108931;1258;72070;-28
2023/11/03 01:50:07;;;;;;;6.30;3.80;;;;;;;7.13;83.97;98003.73;108995;1259;74342;-28
2023/11/03 01:52:35;;;;;;;6.30;4.10;;;;;;;6.92;85.27;98004.04;108892;1259;72711;-28
2023/11/03 01:55:03;;;;;;;5.80;4.70;;;;;;;7.23;84.52;97998.73;108976;1259;58828;-28
2023/11/03 01:57:30;;;;;;;7.60;4.30;;;;;;;7.46;82.94;97993.02;108968;1260;58759;-28
2023/11/03 01:59:58;;;;;;;5.90;3.80;;;;;;;7.40;82.67;97987.27;108938;1259;71877;-28
2023/11/03 02:02:26;;;;;;;5.90;3.80;;;;;;;7.20;83.27;97981.48;108907;1262;73622;-28
2023/11/03 02:04:54;;;;;;;7.20;3.90;;;;;;;6.98;84.24;97981.98;108943;1264;72683;-28
2023/11/03 02:07:22;;;;;;;6.50;3.40;;;;;;;7.02;84.47;97986.13;108906;1260;61692;-28
2023/11/03 02:09:50;;;;;;;4.90;3.00;;;;;;;7.37;82.87;97984.41;108922;1258;60052;-28
2023/11/03 02:12:17;;;;;;;6.70;3.30;;;;;;;7.46;81.71;97989.05;108923;1259;71839;-28
2023/11/03 02:14:45;;;;;;;6.00;3.80;;;;;;;7.34;81.85;97987.59;108967;1259;74376;-28
2023/11/03 02:17:13;;;;;;;5.40;4.20;;;;;;;7.14;82.59;97987.58;108985;1259;71427;-28
2023/11/03 02:19:41;;;;;;;5.40;3.10;;;;;;;6.97;83.36;97995.92;108987;1259;58806;-28
2023/11/03 02:22:08;;;;;;;6.00;3.10;;;;;;;7.14;83.40;97997.91;108942;1260;60042;-28
2023/11/03 02:24:36;;;;;;;6.60;3.90;;;;;;;7.49;81.37;97996.86;108934;1259;72095;-28
2023/11/03 02:27:04;;;;;;;5.70;4.10;;;;;;;7.47;80.94;97994.25;108978;1259;73037;-28
2023/11/03 02:29:31;;;;;;;7.50;3.40;;;;;;;7.31;81.24;97993.90;108977;1259;72660;-28
2023/11/03 02:31:58;;;;;;;7.30;3.40;;;;;;;7.10;81.90;97992.42;108920;1259;58815;-28
2023/11/03 02:34:26;;;;;;;4.70;3.20;;;;;;;6.91;82.97;97989.60;109009;1259;58939;-29
2023/11/03 02:36:53;;;;;;;4.70;3.20;;;;;;;7.18;82.77;97994.12;108930;1260;73049;-28
2023/11/03 02:39:21;;;;;;;4.20;3.10;;;;;;;7.51;80.97;97989.27;109022;1259;74289;-28
2023/11/03 02:41:48;;;;;;;7.50;4.00;;;;;;;7.51;80.55;97989.82;108817;1260;72665;-28
2023/11/03 02:44:16;;;;;;;5.40;3.50;;;;;;;7.37;80.82;97992.38;108984;1260;60104;-28
2023/11/03 02:46:46;;;;;;;4.00;2.70;;;;;;;7.21;81.47;97990.27;108907;1259;58799;-28
2023/11/03 02:49:14;;;;;;;5.20;3.40;;;;;;;7.05;82.29;97988.86;108983;1260;73061;-28
2023/11/03 02:51:42;;;;;;;5.50;4.00;;;;;;;7.32;81.67;97987.48;109020;1259;73554;-28
2023/11/03 02:54:09;;;;;;;5.90;4.00;;;;;;;7.57;80.09;97980.13;108978;1259;72645;-28
2023/11/03 02:56:37;;;;;;;5.60;4.00;;;;;;;7.52;79.94;97978.11;108900;1262;58787;-28
2023/11/03 02:59:05;;;;;;;5.00;3.60;;;;;;;7.36;80.37;97973.80;108944;1260;60035;-28
2023/11/03 03:01:36;;;;;;;7.50;4.30;;;;;;;7.17;81.39;97972.84;109008;1259;73129;-28
2023/11/03 03:04:03;;;;;;;5.60;3.10;;;;;;;7.07;81.79;97971.90;109034;1259;74306;-28
2023/11/03 03:06:31;;;;;;;5.40;3.50;;;;;;;7.41;81.08;97975.67;108962;1260;71465;-28
2023/11/03 03:08:59;;;;;;;6.40;3.20;;;;;;;7.62;79.59;97976.65;108954;1259;60076;-28
2023/11/03 03:11:26;;;;;;;8.20;4.90;;;;;;;7.56;79.38;97983.65;109000;1260;60113;-28
2023/11/03 03:13:54;;;;;;;7.40;3.60;;;;;;;7.41;79.85;97980.27;108991;1259;71841;-28
2023/11/03 03:16:21;;;;;;;9.00;4.60;;;;;;;7.21;80.79;97981.98;108942;1260;73551;-28
2023/11/03 03:18:49;;;;;;;7.20;3.60;;;;;;;7.03;81.84;97980.05;109045;1259;72700;-28
2023/11/03 03:21:17;;;;;;;3.40;3.00;;;;;;;7.35;81.08;97975.62;109046;1259;58866;-28
2023/11/03 03:23:44;;;;;;;5.40;3.30;;;;;;;7.67;79.48;97974.45;109090;1260;61384;-28
2023/11/03 03:26:12;;;;;;;6.10;3.70;;;;;;;7.66;79.26;97973.83;108887;1260;73042;-28
2023/11/03 03:28:39;;;;;;;5.60;3.50;;;;;;;7.50;79.67;97978.61;108921;1259;74763;-28
2023/11/03 03:31:07;;;;;;;6.40;4.40;;;;;;;7.33;80.55;97973.93;109038;1262;72461;-28
2023/11/03 03:33:34;;;;;;;5.30;3.90;;;;;;;7.16;81.20;97973.59;109039;1259;58867;-28
2023/11/03 03:36:02;;;;;;;6.30;3.10;;;;;;;7.19;81.57;97974.55;109086;1260;60069;-28
2023/11/03 03:38:29;;;;;;;4.50;3.20;;;;;;;7.59;80.12;97973.57;108988;1260;73011;-28
2023/11/03 03:40:57;;;;;;;6.70;4.80;;;;;;;7.68;79.14;97971.43;108969;1260;74305;-28
2023/11/03 03:43:24;;;;;;;5.40;3.60;;;;;;;7.58;79.42;97978.83;109007;1260;72502;-28
2023/11/03 03:45:52;;;;;;;5.60;4.00;;;;;;;7.41;80.08;97980.30;108957;1263;60038;-28
2023/11/03 03:48:19;;;;;;;5.10;4.10;;;;;;;7.21;81.18;97976.11;109068;1259;59150;-28
2023/11/03 03:50:47;;;;;;;5.50;3.20;;;;;;;7.20;81.99;97971.52;108993;1260;72564;-28
2023/11/03 03:53:14;;;;;;;9.60;3.20;;;;;;;7.65;80.39;97958.73;109073;1260;73016;-26
2023/11/03 03:55:42;;;;;;;5.20;3.80;;;;;;;7.81;79.39;97951.69;108986;1260;71453;-25
2023/11/03 03:58:09;;;;;;;7.10;4.30;;;;;;;7.73;79.45;97957.02;108914;1260;58777;-26
2023/11/03 04:00:36;;;;;;;6.30;4.00;;;;;;;7.59;79.95;97961.15;109050;1259;60014;-26
2023/11/03 04:03:04;;;;;;;7.00;4.80;;;;;;;7.40;81.09;97966.94;108948;1259;72985;-25
2023/11/03 04:05:31;;;;;;;5.70;3.70;;;;;;;7.29;82.04;97966.42;108998;1259;74350;-26
2023/11/03 04:07:59;;;;;;;5.40;3.90;;;;;;;7.70;81.09;97960.55;109001;1259;71450;-26
2023/11/03 04:10:26;;;;;;;3.80;3.20;;;;;;;8.04;79.13;97959.02;109002;1259;58869;-25
2023/11/03 04:12:54;;;;;;;6.10;4.50;;;;;;;7.99;78.99;97950.74;109027;1259;58775;-26
2023/11/03 04:15:21;;;;;;;7.30;3.60;;;;;;;7.83;79.58;97947.88;108943;1259;72733;-26
2023/11/03 04:17:49;;;;;;;7.10;3.70;;;;;;;7.63;80.69;97941.77;108925;1259;74315;-25
2023/11/03 04:20:17;;;;;;;3.70;2.70;;;;;;;7.49;81.91;97944.34;109008;1259;72736;-25
2023/11/03 04:22:44;;;;;;;6.80;4.40;;;;;;;7.74;81.97;97939.48;108951;1259;60098;-26
2023/11/03 04:25:11;;;;;;;11.80;5.80;;;;;;;8.15;79.94;97933.34;108970;1259;58725;-25
2023/11/03 04:27:39;;;;;;;13.30;6.80;;;;;;;8.21;79.61;97930.52;108970;1259;72632;-25
2023/11/03 04:30:07;;;;;;;8.00;4.80;;;;;;;8.12;80.01;97921.60;108982;1259;73165;-25
2023/11/03 04:32:35;;;;;;;7.50;4.20;;;;;;;7.96;80.74;97913.69;108943;1260;72651;-26
2023/11/03 04:35:02;;;;;;;7.20;4.40;;;;;;;7.84;81.56;97915.79;109000;1259;58971;-25
2023/11/03 04:37:30;;;;;;;6.10;4.60;;;;;;;8.13;80.96;97908.27;108889;1265;59109;-25
2023/11/03 04:39:57;;;;;;;5.80;4.10;;;;;;;8.36;79.19;97915.71;108849;1259;73810;-25
2023/11/03 04:42:25;;;;;;;6.70;4.10;;;;;;;8.30;79.12;97910.19;109039;1259;74326;-25
2023/11/03 04:44:52;;;;;;;7.60;4.40;;;;;;;8.10;79.50;97913.70;108967;1259;72662;-25
2023/11/03 04:47:20;;;;;;;7.10;4.50;;;;;;;7.83;80.65;97910.16;108918;1259;60043;-25
2023/11/03 04:49:48;;;;;;;8.30;4.40;;;;;;;7.67;81.79;97908.34;109024;1259;60047;-25
2023/11/03 04:52:16;;;;;;;6.60;4.40;;;;;;;7.91;81.63;97904.42;108933;1259;72896;-25
2023/11/03 04:54:43;;;;;;;6.20;3.60;;;;;;;8.26;79.96;97902.88;109047;1259;74302;-26
2023/11/03 04:57:11;;;;;;;5.80;4.10;;;;;;;8.28;79.30;97900.90;108917;1259;72662;-25
2023/11/03 04:59:38;;;;;;;8.60;5.20;;;;;;;8.11;79.62;97901.32;109026;1259;60066;-26
2023/11/03 05:02:06;;;;;;;5.30;3.90;;;;;;;7.93;80.19;97901.84;108957;1262;60013;-25
2023/11/03 05:04:33;;;;;;;4.00;3.60;;;;;;;7.71;81.00;97898.80;108936;1262;72525;-25
2023/11/03 05:07:01;;;;;;;4.80;4.20;;;;;;;7.87;81.12;97900.70;108869;1261;74269;-25
2023/11/03 05:09:29;;;;;;;5.70;4.00;;;;;;;8.17;79.42;97899.21;108803;1262;72698;-25
2023/11/03 05:11:56;;;;;;;4.70;3.70;;;;;;;8.13;79.19;97902.58;108826;1263;58888;-25
2023/11/03 05:14:24;;;;;;;8.40;4.90;;;;;;;7.96;79.83;97896.79;108886;1262;60075;-26
2023/11/03 05:16:51;;;;;;;5.50;3.70;;;;;;;7.76;80.78;97901.80;108887;1263;73968;-25
2023/11/03 05:19:19;;;;;;;7.50;4.80;;;;;;;7.57;81.67;97899.79;108910;1262;74313;-25
2023/11/03 05:21:46;;;;;;;5.20;3.70;;;;;;;7.70;81.79;97897.00;108858;1262;71725;-25
2023/11/03 05:24:14;;;;;;;8.30;4.60;;;;;;;7.98;80.20;97889.69;108835;1267;60087;-25
2023/11/03 05:26:44;;;;;;;6.70;5.00;;;;;;;7.98;79.97;97889.52;108958;1262;59987;-26
2023/11/03 05:29:12;;;;;;;5.70;4.10;;;;;;;7.88;80.22;97889.38;108854;1261;72563;-26
2023/11/03 05:31:53;;;;;;;5.10;4.00;;;;;;;7.70;80.91;97887.28;108895;1262;74302;-25
2023/11/03 05:34:21;;;;;;;4.00;2.80;;;;;;;7.66;81.56;97892.82;108903;1263;71073;-26
2023/11/03 05:36:48;;;;;;;4.60;3.90;;;;;;;8.13;79.76;97895.26;108796;1261;58842;-25
2023/11/03 05:39:17;;;;;;;6.90;3.20;;;;;;;8.42;78.43;97897.54;108849;1262;58789;-26
2023/11/03 05:41:44;;;;;;;5.70;4.20;;;;;;;8.41;78.25;97895.00;108852;1261;73874;-25
2023/11/03 05:44:12;;;;;;;4.60;3.40;;;;;;;8.32;78.81;97899.30;108768;1262;73634;-25
2023/11/03 05:46:39;;;;;;;7.80;3.10;;;;;;;8.21;79.20;97884.02;108926;1261;72640;-25
2023/11/03 05:49:07;;;;;;;5.80;2.80;;;;;;;8.10;79.92;97883.44;108856;1264;58888;-25
2023/11/03 05:51:35;;;;;;;5.00;3.10;;;;;;;8.41;79.34;97880.64;108970;1262;60035;-25
2023/11/03 05:54:03;;;;;;;4.10;3.30;;;;;;;8.78;77.84;97873.13;108857;1263;73870;-25
2023/11/03 05:56:31;;;;;;;5.50;3.20;;;;;;;8.84;77.33;97882.51;108937;1263;73231;-25
2023/11/03 05:58:58;;;;;;;5.80;3.70;;;;;;;8.75;77.24;97884.55;108777;1261;71079;-25
2023/11/03 06:01:32;;;;;;;6.10;3.20;;;;;;;8.64;77.80;97891.95;108815;1262;58817;-25
2023/11/03 06:04:01;;;;;;;4.60;3.10;;;;;;;8.51;78.46;97893.30;108734;1262;60025;-25
2023/11/03 06:06:28;;;;;;;5.00;3.00;;;;;;;8.65;78.25;97889.39;108739;1262;73823;-28
2023/11/03 06:08:56;;;;;;;3.30;2.90;;;;;;;9.04;76.77;97888.91;108867;1262;74573;-28
2023/11/03 06:11:23;;;;;;;7.20;3.90;;;;;;;9.13;76.48;97889.51;108780;1262;72430;-28
2023/11/03 06:13:51;;;;;;;4.40;3.30;;;;;;;9.09;76.41;97882.80;108838;1263;58845;-28
2023/11/03 06:16:20;;;;;;;5.60;2.90;;;;;;;8.97;76.96;97881.48;108787;1262;58762;-27
2023/11/03 06:18:47;;;;;;;3.80;2.70;;;;;;;8.88;77.18;97878.14;108743;1262;73173;-26
2023/11/03 06:21:20;;;;;;;3.90;2.60;;;;;;;8.90;77.37;97875.87;108832;1262;72996;-25
2023/11/03 06:23:47;;;;;;;3.00;2.50;;;;;;;9.35;75.38;97863.58;108827;1262;71480;-25
2023/11/03 06:26:15;;;;;;;3.40;2.60;;;;;;;9.51;74.28;97866.02;108736;1263;58779;-25
2023/11/03 06:28:43;;;;;;;5.10;3.20;;;;;;;9.45;73.98;97867.13;108737;1262;60138;-25
2023/11/03 06:31:10;;;;;;;3.60;2.90;;;;;;;9.34;74.48;97861.00;108886;1262;72652;-27
2023/11/03 06:33:39;;;;;;;2.80;2.40;;;;;;;9.24;74.83;97863.06;108851;1262;73098;-28
2023/11/03 06:36:07;;;;;;;5.30;3.00;;;;;;;9.16;74.91;97863.96;108709;1262;72703;-28
2023/11/03 06:38:34;;;;;;;3.90;2.30;;;;;;;9.10;75.69;97857.59;108704;1263;58910;-28
2023/11/03 06:41:03;;;;;;;3.90;2.60;;;;;;;9.42;74.13;97860.92;108770;1263;60190;-27
2023/11/03 06:43:31;;;;;;;3.20;2.20;;;;;;;9.77;72.82;97868.20;108752;1262;73880;-28
2023/11/03 06:45:58;;;;;;;3.30;2.20;;;;;;;9.86;72.21;97862.47;108751;1262;73041;-28
2023/11/03 06:48:26;;;;;;;5.90;3.00;;;;;;;9.86;72.11;97862.17;108760;1262;71467;-25
2023/11/03 06:50:54;;;;;;;3.50;2.70;;;;;;;9.86;72.44;97862.48;108724;1263;58811;-25
2023/11/03 06:53:23;;;;;;;5.20;2.20;;;;;;;9.91;72.17;97867.77;108791;1262;58742;-25
2023/11/03 06:55:51;;;;;;;4.40;2.50;;;;;;;10.00;72.11;97869.48;108799;1262;72538;-25
2023/11/03 06:58:18;;;;;;;4.90;2.60;;;;;;;10.08;71.92;97865.95;108857;1262;74355;-27
2023/11/03 07:00:47;;;;;;;3.50;2.60;;;;;;;10.07;71.06;97863.77;108692;1264;71773;-27
2023/11/03 07:03:18;;;;;;;6.00;3.00;;;;;;;9.98;71.40;97850.70;108746;1263;58887;-28
2023/11/03 07:05:47;;;;;;;2.90;2.60;;;;;;;9.89;71.57;97863.23;108770;1265;60055;-28
2023/11/03 07:08:19;;;;;;;2.90;2.40;;;;;;;9.85;72.17;97856.87;108758;1264;73899;-28
2023/11/03 07:10:50;;;;;;;2.40;2.00;;;;;;;9.85;72.04;97862.08;108668;1263;73748;-25
2023/11/03 07:13:21;;;;;;;3.50;2.40;;;;;;;9.83;72.35;97849.23;108659;1263;72705;-25
2023/11/03 07:15:51;;;;;;;4.30;2.50;;;;;;;9.78;72.23;97854.43;108745;1263;60271;-25
2023/11/03 07:18:21;;;;;;;4.20;2.60;;;;;;;9.80;72.36;97859.45;108828;1264;58862;-25
2023/11/03 07:20:51;;;;;;;4.60;1.70;;;;;;;9.98;71.51;97850.35;108709;1263;72876;-25
2023/11/03 07:23:21;;;;;;;6.10;2.70;;;;;;;10.42;69.70;97846.14;108830;1263;75844;-25
2023/11/03 07:25:56;;;;;;;3.40;2.10;;;;;;;10.61;68.77;97848.40;108790;1264;72681;-27
2023/11/03 07:28:26;;;;;;;4.50;2.60;;;;;;;10.53;68.93;97856.63;108821;1263;58856;-25
2023/11/03 07:30:56;;;;;;;3.00;2.10;;;;;;;10.41;68.90;97846.91;108852;1263;58755;-25
2023/11/03 07:33:26;;;;;;;3.60;2.30;;;;;;;10.30;69.59;97849.36;108684;1264;73874;-25
2023/11/03 07:35:59;;;;;;;3.90;2.20;;;;;;;10.25;69.96;97845.20;108799;1265;74473;-25
2023/11/03 07:38:31;;;;;;;6.50;1.80;;;;;;;10.22;70.48;97844.42;108807;1262;72656;-25
2023/11/03 07:41:02;;;;;;;5.00;2.70;;;;;;;10.17;70.05;97848.72;108824;1263;58871;-27
2023/11/03 07:43:33;;;;;;;3.90;2.50;;;;;;;10.18;70.40;97851.77;108822;1263;58845;-28
2023/11/03 07:46:03;;;;;;;4.60;2.70;;;;;;;10.20;70.86;97852.80;108829;1263;72518;-27
2023/11/03 07:48:33;;;;;;;6.70;2.60;;;;;;;10.25;71.08;97848.95;108836;1263;74582;-28
2023/11/03 07:51:03;;;;;;;1.80;1.70;;;;;;;10.52;70.34;97854.34;108839;1264;72730;-28
2023/11/03 07:53:33;;;;;;;4.90;1.80;;;;;;;10.99;68.49;97846.08;108773;1263;58954;-28
2023/11/03 07:56:03;;;;;;;2.70;1.60;;;;;;;11.18;67.52;97850.19;108732;1264;60503;-28
2023/11/03 07:58:33;;;;;;;2.50;1.90;;;;;;;11.11;68.08;97857.08;108724;1263;72767;-28
2023/11/03 08:08:36;;;;;;;2.60;2.00;;;;;;;10.70;69.27;97855.63;102630;1292;599988;-26
2023/11/03 08:11:06;;;;;;;2.90;2.00;;;;;;;10.60;69.39;97844.21;104865;1270;61186;-26
2023/11/03 08:13:34;;;;;;;3.40;2.60;;;;;;;10.49;70.07;97841.83;104889;1266;61067;-26
2023/11/03 08:16:03;;;;;;;7.40;2.80;;;;;;;10.41;70.70;97841.19;104869;1270;72505;-27
2023/11/03 08:18:31;;;;;;;5.00;1.80;;;;;;;10.46;70.21;97841.73;104824;1270;73323;-26
2023/11/03 08:20:59;;;;;;;3.60;2.30;;;;;;;10.90;69.23;97841.36;104619;1266;71409;-26
2023/11/03 08:23:27;;;;;;;2.70;1.90;;;;;;;11.09;67.69;97833.29;102561;1268;61135;-25
2023/11/03 08:25:54;;;;;;;2.60;1.50;;;;;;;10.98;67.84;97830.83;105110;1263;61226;-26
2023/11/03 08:28:22;;;;;;;3.90;2.10;;;;;;;10.82;68.06;97833.23;104888;1263;61115;-26
2023/11/03 08:30:51;;;;;;;2.90;2.00;;;;;;;10.71;68.79;97830.23;104900;1268;61184;-26
2023/11/03 08:33:19;;;;;;;3.20;2.00;;;;;;;10.67;69.30;97825.06;104890;1263;71212;-26
2023/11/03 08:35:50;;;;;;;2.30;1.80;;;;;;;10.66;69.76;97816.86;104878;1263;61171;-26
2023/11/03 08:38:18;;;;;;;2.90;2.30;;;;;;;10.68;69.82;97820.93;104937;1268;62328;-26
2023/11/03 08:40:46;;;;;;;3.90;1.70;;;;;;;10.74;69.99;97816.27;105015;1263;75089;-26
2023/11/03 08:43:15;;;;;;;3.00;1.70;;;;;;;11.14;69.07;97810.22;105098;1263;74136;-26
2023/11/03 08:45:43;;;;;;;3.70;2.40;;;;;;;11.53;67.50;97809.53;104879;1269;71162;-26
2023/11/03 08:48:12;;;;;;;2.70;2.30;;;;;;;11.65;67.00;97805.80;104895;1270;61268;-26
2023/11/03 08:50:39;;;;;;;5.40;2.40;;;;;;;11.61;66.74;97798.80;105122;1262;61096;-26
2023/11/03 08:53:07;;;;;;;3.10;1.90;;;;;;;11.64;66.95;97804.92;104834;1262;73066;-26
2023/11/03 08:55:35;;;;;;;8.10;2.50;;;;;;;11.65;66.87;97805.70;105090;1262;74401;-26
2023/11/03 08:58:03;;;;;;;5.40;2.50;;;;;;;11.64;67.53;97811.36;105049;1268;72539;-26
2023/11/03 09:00:31;;;;;;;3.20;2.20;;;;;;;11.74;67.15;97805.04;105019;1268;61227;-26
2023/11/03 09:02:59;;;;;;;3.00;2.50;;;;;;;11.93;66.03;97806.93;104830;1266;61110;-26
2023/11/03 09:13:26;;;;;;;7.60;3.00;;;;;;;12.35;64.77;97815.45;102473;1290;614526;-27
2023/11/03 09:15:53;;;;;;;7.30;2.80;;;;;;;12.45;64.88;97823.66;104888;1266;61089;-27
2023/11/03 09:18:22;;;;;;;5.20;2.60;;;;;;;12.70;64.19;97821.25;104890;1265;61140;-27
2023/11/03 09:20:49;;;;;;;5.30;2.90;;;;;;;12.69;63.53;97813.75;104780;1266;73637;-27
2023/11/03 09:23:17;;;;;;;3.20;2.00;;;;;;;12.63;63.36;97816.11;104771;1266;74835;-26
2023/11/03 09:25:44;;;;;;;8.50;3.40;;;;;;;12.53;63.16;97814.09;102388;1271;3495328;-27
2023/11/03 09:28:11;;;;;;;4.30;2.40;;;;;;;12.63;63.37;97820.81;104911;1268;61158;-27
2023/11/03 09:30:38;;;;;;;4.30;2.80;;;;;;;12.71;63.23;97822.56;105142;1263;61680;-26
2023/11/03 09:33:05;;;;;;;4.10;2.50;;;;;;;12.57;63.03;97802.85;104999;1263;61258;-27
2023/11/03 09:35:33;;;;;;;4.20;2.40;;;;;;;12.42;63.91;97818.05;104879;1262;74054;-26
2023/11/03 09:38:00;;;;;;;4.80;2.30;;;;;;;12.31;64.08;97806.88;105006;1266;74074;-26
2023/11/03 09:40:28;;;;;;;9.20;2.60;;;;;;;12.28;64.68;97809.30;105127;1262;61000;-26
2023/11/03 09:42:55;;;;;;;4.30;2.60;;;;;;;12.25;64.71;97806.27;105107;1268;61097;-26
2023/11/03 09:45:23;;;;;;;4.80;2.50;;;;;;;12.14;64.66;97808.38;105156;1263;72843;-26
2023/11/03 09:47:51;;;;;;;6.70;2.20;;;;;;;12.03;65.01;97804.25;104902;1263;76002;-27
2023/11/03 09:50:20;;;;;;;4.60;2.80;;;;;;;12.00;65.05;97810.46;104861;1263;73063;-26
2023/11/03 09:52:47;;;;;;;6.50;2.60;;;;;;;11.95;65.59;97801.83;104907;1269;61155;-26
2023/11/03 09:55:21;;;;;;;4.60;2.40;;;;;;;11.97;65.44;97798.62;105156;1263;61105;-26
2023/11/03 09:57:51;;;;;;;;;;;;;;;12.03;65.15;97777.51;104909;1263;73458;-26
2023/11/03 10:00:19;;;;;;;4.50;1.60;;;;;;;12.02;65.30;97768.20;105153;1266;75539;-27
2023/11/03 10:02:49;;;;;;;5.30;2.70;;;;;;;12.07;65.12;97767.52;104827;1266;73034;-26
2023/11/03 10:05:17;;;;;;;5.80;2.50;;;;;;;11.96;65.25;97763.11;104898;1265;61071;-27
2023/11/03 10:08:00;;;;;;;10.50;2.50;;;;;;;11.87;65.71;97759.90;104548;1271;61155;-26
2023/11/03 10:10:28;;;;;;;2.90;1.60;;;;;;;11.80;65.81;97757.13;104995;1266;73178;-26
2023/11/03 10:12:57;;;;;;;3.60;2.00;;;;;;;11.76;66.26;97752.54;104810;1266;74320;-26
2023/11/03 10:15:25;;;;;;;5.40;2.10;;;;;;;11.75;66.23;97754.02;104874;1266;73827;-27
2023/11/03 10:17:56;;;;;;;3.90;2.20;;;;;;;11.72;66.36;97751.17;104895;1269;61678;-26
2023/11/03 10:20:25;;;;;;;4.30;2.10;;;;;;;11.80;66.79;97749.69;104868;1269;61213;-26
2023/11/03 10:22:52;;;;;;;5.30;2.20;;;;;;;11.90;66.23;97752.95;104904;1270;72234;-27
2023/11/03 10:25:19;;;;;;;5.70;2.30;;;;;;;11.97;66.02;97759.68;105006;1266;73161;-27
2023/11/03 10:27:49;;;;;;;3.70;2.00;;;;;;;11.96;65.80;97750.91;104798;1266;70713;-26
2023/11/03 10:30:20;;;;;;;3.50;1.70;;;;;;;11.96;66.41;97755.77;104800;1267;61188;-26
2023/11/03 10:32:48;;;;;;;4.60;2.30;;;;;;;11.93;66.16;97753.82;104988;1266;61153;-26
2023/11/03 10:35:15;;;;;;;3.30;2.10;;;;;;;11.85;66.45;97749.66;104801;1266;73536;-27
2023/11/03 10:37:43;;;;;;;3.70;1.90;;;;;;;11.85;66.41;97750.73;105192;1260;74587;-26
2023/11/03 10:40:13;;;;;;;6.80;2.40;;;;;;;11.87;66.40;97733.65;105580;1259;72634;-26
2023/11/03 10:42:44;;;;;;;3.60;2.10;;;;;;;11.90;66.53;97725.33;105474;1258;61122;-26
2023/11/03 10:45:12;;;;;;;3.40;2.30;;;;;;;12.02;66.63;97725.09;105295;1263;61155;-26
2023/11/03 10:48:05;;;;;;;4.00;2.00;;;;;;;12.14;66.09;97723.63;105254;1260;72919;-26
2023/11/03 10:50:37;;;;;;;2.60;1.70;;;;;;;12.41;65.22;97712.64;105362;1258;75012;-26
2023/11/03 10:53:25;;;;;;;5.00;2.30;;;;;;;12.65;63.99;97704.34;105240;1258;72871;-26
2023/11/03 10:55:55;;;;;;;3.10;2.00;;;;;;;12.92;63.35;97709.27;105301;1260;61267;-28
2023/11/03 10:58:22;;;;;;;5.30;2.20;;;;;;;13.05;62.84;97716.13;105358;1262;61134;-26
2023/11/03 11:01:03;;;;;;;4.80;2.70;;;;;;;13.00;62.18;97704.42;105407;1261;72037;-26
2023/11/03 11:03:36;;;;;;;3.80;2.30;;;;;;;12.98;62.40;97707.38;105256;1260;74401;-27
2023/11/03 11:06:16;;;;;;;4.40;2.50;;;;;;;13.29;61.63;97694.84;105187;1264;73048;-26
2023/11/03 11:08:46;;;;;;;3.10;2.20;;;;;;;13.32;60.80;97690.01;105284;1265;61114;-26
2023/11/03 11:11:13;;;;;;;4.00;2.50;;;;;;;13.29;60.55;97687.10;105011;1258;61144;-26
2023/11/03 11:13:41;;;;;;;6.40;2.90;;;;;;;13.35;60.85;97675.54;105426;1259;73002;-26
2023/11/03 11:16:10;;;;;;;6.10;3.20;;;;;;;13.27;60.86;97685.87;105495;1262;74656;-26
2023/11/03 11:18:56;;;;;;;4.30;2.30;;;;;;;13.10;61.50;97685.02;105352;1259;72701;-26
2023/11/03 11:21:30;;;;;;;6.40;3.20;;;;;;;12.94;62.09;97693.36;105424;1262;61009;-26
2023/11/03 11:23:58;;;;;;;5.50;2.60;;;;;;;12.97;63.00;97700.80;105385;1257;61093;-26
2023/11/03 11:26:25;;;;;;;4.40;2.50;;;;;;;13.25;62.19;97697.78;105320;1265;71812;-26
2023/11/03 11:29:03;;;;;;;2.70;2.30;;;;;;;13.39;61.11;97677.19;105572;1261;75822;-26
2023/11/03 11:31:30;;;;;;;3.80;2.60;;;;;;;13.28;61.51;97688.90;105291;1259;73480;-30
2023/11/03 11:34:04;;;;;;;6.40;2.70;;;;;;;13.12;61.96;97677.66;105161;1260;61107;-26
2023/11/03 11:36:35;;;;;;;5.20;2.50;;;;;;;13.12;62.17;97684.13;105092;1259;61181;-26
2023/11/03 11:39:17;;;;;;;3.70;2.40;;;;;;;12.99;62.14;97675.91;105103;1264;71843;-26
2023/11/03 11:41:55;;;;;;;4.30;2.30;;;;;;;12.87;62.61;97676.09;105256;1262;73361;-27
2023/11/03 11:44:24;;;;;;;7.50;2.60;;;;;;;12.86;62.96;97656.58;105184;1260;72681;-26
2023/11/03 11:46:59;;;;;;;5.00;2.10;;;;;;;12.84;63.17;97662.34;105098;1262;61170;-26
2023/11/03 11:49:29;;;;;;;3.60;2.40;;;;;;;12.90;62.84;97635.12;105167;1259;61591;-26
2023/11/03 11:51:57;;;;;;;3.90;2.90;;;;;;;13.09;62.89;97654.52;105338;1262;72369;-26